createdAt,value
2023-01-19T00:00:33.126Z,98443.34
2023-01-19T00:03:36.994Z,98429.78
2023-01-19T00:06:39.588Z,98439.66
2023-01-19T00:09:42.769Z,98452.00
2023-01-19T00:12:45.428Z,98456.75
2023-01-19T00:15:48.434Z,98443.19
2023-01-19T00:18:52.336Z,98446.53
2023-01-19T00:21:55.293Z,98454.84
2023-01-19T00:24:58.309Z,98442.72
2023-01-19T00:28:01.855Z,98442.59
2023-01-19T00:31:04.742Z,98438.78
2023-01-19T00:34:08.697Z,98432.13
2023-01-19T00:37:11.365Z,98433.81
2023-01-19T00:40:14.779Z,98438.47
2023-01-19T00:43:17.564Z,98435.44
2023-01-19T00:46:20.446Z,98445.66
2023-01-19T00:49:23.063Z,98439.37
2023-01-19T00:52:25.912Z,98436.88
2023-01-19T00:55:29.774Z,98438.53
2023-01-19T00:58:33.946Z,98433.44
2023-01-19T01:01:46.020Z,98426.31
2023-01-19T01:04:54.792Z,98430.22
2023-01-19T01:07:57.579Z,98430.34
2023-01-19T01:11:01.326Z,98432.03
2023-01-19T01:14:03.876Z,98427.88
2023-01-19T01:17:11.395Z,98415.31
2023-01-19T01:20:21.547Z,98407.69
2023-01-19T01:23:24.469Z,98413.50
2023-01-19T01:26:27.832Z,98406.41
2023-01-19T01:29:30.986Z,98412.00
2023-01-19T01:32:33.699Z,98418.78
2023-01-19T01:35:36.582Z,98414.38
2023-01-19T01:38:40.487Z,98414.38
2023-01-19T01:41:43.438Z,98408.56
2023-01-19T01:44:51.921Z,98406.09
2023-01-19T01:48:01.742Z,98399.44
2023-01-19T01:51:26.148Z,98406.69
2023-01-19T01:54:31.180Z,98403.13
2023-01-19T01:57:42.037Z,98412.12
2023-01-19T02:01:03.893Z,98414.53
2023-01-19T02:04:07.173Z,98430.19
2023-01-19T02:07:35.813Z,98438.37
2023-01-19T02:10:59.744Z,98443.22
2023-01-19T02:14:05.853Z,98447.53
2023-01-19T02:17:08.794Z,98421.41
2023-01-19T02:20:12.240Z,98388.41
2023-01-19T02:23:23.413Z,98377.75
2023-01-19T02:26:39.925Z,98398.88
2023-01-19T02:29:43.493Z,98438.44
2023-01-19T02:32:46.428Z,98466.41
2023-01-19T02:35:52.636Z,98471.50
2023-01-19T02:38:58.209Z,98475.47
2023-01-19T02:42:06.097Z,98444.16
2023-01-19T02:45:10.009Z,98419.47
2023-01-19T02:48:12.889Z,98417.22
2023-01-19T02:51:24.137Z,98408.81
2023-01-19T02:54:54.572Z,98400.72
2023-01-19T02:57:57.049Z,98416.13
2023-01-19T03:01:21.060Z,98440.75
2023-01-19T03:04:31.898Z,98441.09
2023-01-19T03:07:58.747Z,98450.09
2023-01-19T03:11:11.871Z,98450.81
2023-01-19T03:14:21.282Z,98450.53
2023-01-19T03:17:26.049Z,98447.88
2023-01-19T03:20:29.189Z,98463.38
2023-01-19T03:23:34.340Z,98483.84
2023-01-19T03:26:49.201Z,98478.41
2023-01-19T03:29:59.203Z,98466.47
2023-01-19T03:33:11.842Z,98455.06
2023-01-19T03:36:24.291Z,98434.59
2023-01-19T03:39:28.188Z,98409.91
2023-01-19T03:42:30.984Z,98395.69
2023-01-19T03:45:39.234Z,98392.53
2023-01-19T03:48:42.118Z,98391.94
2023-01-19T03:51:49.060Z,98396.22
2023-01-19T03:54:52.047Z,98397.28
2023-01-19T03:57:55.129Z,98417.59
2023-01-19T04:00:57.965Z,98434.78
2023-01-19T04:04:01.137Z,98449.97
2023-01-19T04:07:04.699Z,98451.13
2023-01-19T04:10:12.620Z,98445.22
2023-01-19T04:13:15.522Z,98435.50
2023-01-19T04:16:21.330Z,98433.63
2023-01-19T04:19:32.396Z,98416.34
2023-01-19T04:22:35.550Z,98430.66
2023-01-19T04:25:40.475Z,98421.00
2023-01-19T04:28:46.362Z,98425.91
2023-01-19T04:32:09.868Z,98437.56
2023-01-19T04:35:17.408Z,98435.91
2023-01-19T04:38:23.896Z,98427.97
2023-01-19T04:41:26.977Z,98434.12
2023-01-19T04:44:30.062Z,98428.12
2023-01-19T04:47:40.640Z,98416.94
2023-01-19T04:50:43.930Z,98426.62
2023-01-19T04:53:47.842Z,98421.00
2023-01-19T04:56:53.443Z,98418.28
2023-01-19T05:00:21.075Z,98424.09
2023-01-19T05:03:25.720Z,98431.94
2023-01-19T05:06:29.482Z,98441.72
2023-01-19T05:09:31.952Z,98444.44
2023-01-19T05:12:34.755Z,98442.56
2023-01-19T05:15:37.549Z,98442.25
2023-01-19T05:18:40.850Z,98444.16
2023-01-19T05:21:43.754Z,98470.00
2023-01-19T05:24:46.779Z,98491.94
2023-01-19T05:27:51.106Z,98492.97
2023-01-19T05:30:54.911Z,98500.66
2023-01-19T05:33:57.856Z,98502.13
2023-01-19T05:37:00.958Z,98510.44
2023-01-19T05:40:03.821Z,98509.53
2023-01-19T05:43:06.744Z,98504.81
2023-01-19T05:46:13.319Z,98499.16
2023-01-19T05:49:18.321Z,98480.69
2023-01-19T05:52:21.994Z,98476.25
2023-01-19T05:55:26.555Z,98473.31
2023-01-19T05:58:31.556Z,98462.50
2023-01-19T06:04:47.393Z,98441.28
2023-01-19T06:07:50.204Z,98465.91
2023-01-19T06:10:53.688Z,98472.16
2023-01-19T06:14:00.200Z,98471.56
2023-01-19T06:17:06.279Z,98438.41
2023-01-19T06:20:11.542Z,98458.91
2023-01-19T06:23:14.696Z,98470.88
2023-01-19T06:26:17.392Z,98453.75
2023-01-19T06:29:23.111Z,98448.94
2023-01-19T06:32:25.726Z,98441.13
2023-01-19T06:35:28.833Z,98434.12
2023-01-19T06:38:32.926Z,98454.53
2023-01-19T06:41:36.200Z,98464.72
2023-01-19T06:44:38.836Z,98486.84
2023-01-19T06:47:41.744Z,98497.06
2023-01-19T06:50:45.863Z,98499.59
2023-01-19T06:53:48.735Z,98500.13
2023-01-19T06:56:51.777Z,98497.13
2023-01-19T06:59:54.604Z,98487.28
2023-01-19T07:02:57.502Z,98486.66
2023-01-19T07:06:03.596Z,98483.00
2023-01-19T07:09:08.057Z,98477.47
2023-01-19T07:12:11.019Z,98490.16
2023-01-19T07:15:22.141Z,98496.69
2023-01-19T07:18:27.489Z,98492.66
2023-01-19T07:21:30.223Z,98482.16
2023-01-19T07:24:37.971Z,98478.03
2023-01-19T07:27:40.667Z,98488.53
2023-01-19T07:30:46.263Z,98497.81
2023-01-19T07:33:48.970Z,98503.72
2023-01-19T07:36:51.838Z,98504.47
2023-01-19T07:39:55.451Z,98505.84
2023-01-19T07:42:59.089Z,98498.75
2023-01-19T07:46:19.181Z,98505.16
2023-01-19T07:49:32.728Z,98507.37
2023-01-19T07:52:38.324Z,98531.09
2023-01-19T07:55:41.691Z,98529.84
2023-01-19T07:58:44.907Z,98531.47
2023-01-19T08:01:48.397Z,98525.62
2023-01-19T08:04:54.107Z,98515.00
2023-01-19T08:08:00.669Z,98517.94
2023-01-19T08:11:03.836Z,98511.56
2023-01-19T08:14:08.024Z,98511.56
2023-01-19T08:17:14.121Z,98504.09
2023-01-19T08:20:17.200Z,98512.34
2023-01-19T08:23:20.460Z,98506.00
2023-01-19T08:26:27.594Z,98503.09
2023-01-19T08:29:33.980Z,98515.06
2023-01-19T08:32:36.624Z,98531.38
2023-01-19T08:35:49.510Z,98523.50
2023-01-19T08:38:52.245Z,98524.78
2023-01-19T08:41:55.288Z,98533.16
2023-01-19T08:44:58.668Z,98526.62
2023-01-19T08:48:02.162Z,98529.81
2023-01-19T08:51:07.810Z,98522.31
2023-01-19T08:54:10.925Z,98521.53
2023-01-19T08:57:13.499Z,98535.28
2023-01-19T09:00:17.332Z,98527.53
2023-01-19T09:03:25.002Z,98532.88
2023-01-19T09:06:29.333Z,98528.53
2023-01-19T09:09:32.376Z,98517.56
2023-01-19T09:12:35.363Z,98517.00
2023-01-19T09:15:39.082Z,98511.81
2023-01-19T09:18:42.354Z,98507.97
2023-01-19T09:21:45.276Z,98523.75
2023-01-19T09:24:50.499Z,98520.25
2023-01-19T09:27:55.113Z,98513.66
2023-01-19T09:30:59.349Z,98513.47
2023-01-19T09:34:02.563Z,98515.37
2023-01-19T09:37:07.756Z,98522.97
2023-01-19T09:40:14.080Z,98534.50
2023-01-19T09:43:41.888Z,98538.31
2023-01-19T09:46:46.993Z,98535.63
2023-01-19T09:49:58.920Z,98530.91
2023-01-19T09:53:13.846Z,98520.84
2023-01-19T09:56:20.178Z,98523.44
2023-01-19T09:59:29.408Z,98517.28
2023-01-19T10:02:51.897Z,98525.59
2023-01-19T10:06:14.554Z,98542.91
2023-01-19T10:09:38.165Z,98548.59
2023-01-19T10:12:53.520Z,98550.50
2023-01-19T10:16:34.746Z,98550.94
2023-01-19T10:19:46.565Z,98548.25
2023-01-19T10:22:50.517Z,98548.38
2023-01-19T10:25:55.027Z,98547.09
2023-01-19T10:29:05.422Z,98549.56
2023-01-19T10:32:19.982Z,98553.37
2023-01-19T10:35:25.149Z,98550.75
2023-01-19T10:38:30.520Z,98560.91
2023-01-19T10:41:53.315Z,98555.25
2023-01-19T10:45:29.519Z,98568.63
2023-01-19T10:48:41.997Z,98559.78
2023-01-19T10:51:48.849Z,98569.81
2023-01-19T10:54:51.716Z,98546.97
2023-01-19T10:57:55.840Z,98550.91
2023-01-19T11:01:18.137Z,98563.81
2023-01-19T11:04:31.427Z,98558.38
2023-01-19T11:07:34.672Z,98564.34
2023-01-19T11:10:38.259Z,98556.84
2023-01-19T11:13:42.404Z,98554.94
2023-01-19T11:16:49.420Z,98555.75
2023-01-19T11:20:00.955Z,98550.84
2023-01-19T11:23:45.460Z,98569.63
2023-01-19T11:26:57.664Z,98563.78
2023-01-19T11:30:15.930Z,98563.66
2023-01-19T11:33:27.556Z,98576.53
2023-01-19T11:36:37.763Z,98573.84
2023-01-19T11:39:55.455Z,98572.34
2023-01-19T11:42:58.940Z,98585.63
2023-01-19T11:46:05.240Z,98584.91
2023-01-19T11:49:20.316Z,98588.72
2023-01-19T11:52:33.017Z,98583.94
2023-01-19T11:55:46.181Z,98584.50
2023-01-19T11:58:49.592Z,98585.59
2023-01-19T12:01:57.844Z,98588.19
2023-01-19T12:05:06.317Z,98596.56
2023-01-19T12:08:16.683Z,98594.34
2023-01-19T12:11:26.457Z,98597.00
2023-01-19T12:14:48.256Z,98606.75
2023-01-19T12:17:54.506Z,98614.22
2023-01-19T12:20:58.826Z,98612.06
2023-01-19T12:24:18.229Z,98610.84
2023-01-19T12:27:40.511Z,98615.69
2023-01-19T12:30:45.344Z,98618.84
2023-01-19T12:33:48.830Z,98631.06
2023-01-19T12:36:52.484Z,98636.47
2023-01-19T12:39:58.523Z,98637.75
2023-01-19T12:43:06.006Z,98645.63
2023-01-19T12:46:29.425Z,98647.88
2023-01-19T12:49:38.739Z,98658.78
2023-01-19T12:52:53.922Z,98663.19
2023-01-19T12:56:01.433Z,98663.94
2023-01-19T12:59:05.279Z,98666.41
2023-01-19T13:02:20.464Z,98664.56
2023-01-19T13:05:33.227Z,98673.88
2023-01-19T13:09:01.016Z,98673.63
2023-01-19T13:12:24.562Z,98691.88
2023-01-19T13:15:35.635Z,98713.25
2023-01-19T13:18:42.000Z,98712.75
2023-01-19T13:21:47.655Z,98707.72
2023-01-19T13:25:12.613Z,98719.25
2023-01-19T13:28:19.406Z,98714.25
2023-01-19T13:31:23.189Z,98727.19
2023-01-19T13:34:27.939Z,98733.88
2023-01-19T13:37:48.568Z,98737.63
2023-01-19T13:40:56.024Z,98750.75
2023-01-19T13:44:12.947Z,98762.75
2023-01-19T13:47:25.145Z,98760.56
2023-01-19T13:54:06.242Z,98763.69
2023-01-19T13:57:34.468Z,98765.66
2023-01-19T14:00:38.571Z,98774.53
2023-01-19T14:03:41.820Z,98773.69
2023-01-19T14:06:49.708Z,98773.34
2023-01-19T14:10:04.936Z,98779.84
2023-01-19T14:13:34.231Z,98780.38
2023-01-19T14:16:39.159Z,98774.66
2023-01-19T14:20:13.615Z,98769.13
2023-01-19T14:23:42.129Z,98761.72
2023-01-19T14:26:56.513Z,98761.78
2023-01-19T14:30:22.262Z,98779.44
2023-01-19T14:33:55.225Z,98795.38
2023-01-19T14:36:59.281Z,98799.78
2023-01-19T14:40:15.676Z,98807.25
2023-01-19T14:43:21.999Z,98806.03
2023-01-19T14:46:26.054Z,98815.00
2023-01-19T14:49:32.901Z,98836.66
2023-01-19T14:52:40.203Z,98836.78
2023-01-19T14:55:48.869Z,98829.81
2023-01-19T14:58:52.206Z,98830.62
2023-01-19T15:01:55.255Z,98854.81
2023-01-19T15:04:58.507Z,98877.75
2023-01-19T15:08:03.243Z,98892.50
2023-01-19T15:11:22.785Z,98894.38
2023-01-19T15:14:26.168Z,98899.16
2023-01-19T15:17:29.328Z,98893.38
2023-01-19T15:20:35.535Z,98891.66
2023-01-19T15:23:38.093Z,98890.88
2023-01-19T15:26:42.952Z,98869.47
2023-01-19T15:29:46.191Z,98860.63
2023-01-19T15:32:49.941Z,98866.34
2023-01-19T15:35:53.279Z,98871.66
2023-01-19T15:38:57.142Z,98888.72
2023-01-19T15:42:00.001Z,98893.56
2023-01-19T15:45:03.128Z,98896.66
2023-01-19T15:48:11.635Z,98894.00
2023-01-19T15:51:16.800Z,98900.31
2023-01-19T15:54:19.576Z,98908.72
2023-01-19T15:57:22.425Z,98916.31
2023-01-19T16:00:25.162Z,98929.50
2023-01-19T16:03:28.251Z,98953.28
2023-01-19T16:06:31.860Z,98973.50
2023-01-19T16:09:40.534Z,98983.50
2023-01-19T16:12:44.555Z,98972.94
2023-01-19T16:15:51.949Z,98968.75
2023-01-19T16:18:54.999Z,98964.56
2023-01-19T16:21:57.955Z,98981.97
2023-01-19T16:25:00.818Z,98995.28
2023-01-19T16:28:09.416Z,99012.66
2023-01-19T16:31:20.189Z,99016.38
2023-01-19T16:34:26.694Z,99021.47
2023-01-19T16:37:29.807Z,99021.47
2023-01-19T16:40:33.993Z,99030.41
2023-01-19T16:43:36.809Z,99035.31
2023-01-19T16:46:41.706Z,99037.75
2023-01-19T16:49:46.451Z,99041.00
2023-01-19T16:52:50.745Z,99046.59
2023-01-19T16:55:53.784Z,99052.47
2023-01-19T16:58:58.211Z,99053.00
2023-01-19T17:02:01.080Z,99071.87
2023-01-19T17:05:04.913Z,99064.63
2023-01-19T17:08:12.227Z,99067.81
2023-01-19T17:11:21.158Z,99074.94
2023-01-19T17:14:23.812Z,99074.56
2023-01-19T17:17:27.159Z,99082.38
2023-01-19T17:20:35.623Z,99086.09
2023-01-19T17:23:43.048Z,99087.41
2023-01-19T17:26:48.599Z,99081.75
2023-01-19T17:29:51.873Z,99072.25
2023-01-19T17:32:55.270Z,99087.03
2023-01-19T17:36:08.722Z,99096.97
2023-01-19T17:39:17.031Z,99106.47
2023-01-19T17:42:21.020Z,99111.41
2023-01-19T17:45:24.485Z,99125.94
2023-01-19T17:48:29.946Z,99129.34
2023-01-19T17:51:47.443Z,99132.69
2023-01-19T17:55:11.001Z,99138.75
2023-01-19T17:58:17.417Z,99137.41
2023-01-19T18:01:26.875Z,99123.13
2023-01-19T18:04:32.202Z,99128.16
2023-01-19T18:07:35.317Z,99119.88
2023-01-19T18:10:40.748Z,99127.22
2023-01-19T18:13:47.023Z,99129.22
2023-01-19T18:16:50.222Z,99133.81
2023-01-19T18:19:55.826Z,99140.03
2023-01-19T18:23:04.857Z,99143.19
2023-01-19T18:26:14.278Z,99142.50
2023-01-19T18:29:21.464Z,99145.09
2023-01-19T18:32:26.414Z,99150.06
2023-01-19T18:35:36.651Z,99149.44
2023-01-19T18:38:47.876Z,99157.88
2023-01-19T18:41:56.235Z,99156.53
2023-01-19T18:45:12.867Z,99165.44
2023-01-19T18:48:18.105Z,99164.03
2023-01-19T18:51:21.518Z,99169.44
2023-01-19T18:54:24.816Z,99167.75
2023-01-19T18:57:30.733Z,99165.13
2023-01-19T19:00:34.068Z,99168.00
2023-01-19T19:03:37.301Z,99174.75
2023-01-19T19:06:40.734Z,99174.81
2023-01-19T19:09:45.922Z,99177.06
2023-01-19T19:12:51.101Z,99181.75
2023-01-19T19:16:02.228Z,99189.97
2023-01-19T19:19:08.484Z,99186.72
2023-01-19T19:22:11.413Z,99182.38
2023-01-19T19:25:14.675Z,99185.47
2023-01-19T19:28:18.384Z,99189.03
2023-01-19T19:31:23.376Z,99187.94
2023-01-19T19:34:27.971Z,99202.34
2023-01-19T19:37:31.007Z,99209.78
2023-01-19T19:40:34.267Z,99217.59
2023-01-19T19:43:38.178Z,99217.91
2023-01-19T19:46:41.457Z,99226.06
2023-01-19T19:49:47.674Z,99232.59
2023-01-19T19:52:50.291Z,99238.31
2023-01-19T19:56:02.778Z,99245.34
2023-01-19T19:59:10.328Z,99244.53
2023-01-19T20:02:14.685Z,99244.28
2023-01-19T20:05:17.956Z,99243.16
2023-01-19T20:08:22.556Z,99250.38
2023-01-19T20:11:27.551Z,99231.56
2023-01-19T20:14:30.592Z,99243.34
2023-01-19T20:17:33.888Z,99222.50
2023-01-19T20:20:38.503Z,99227.22
2023-01-19T20:23:42.731Z,99234.13
2023-01-19T20:26:50.341Z,99254.22
2023-01-19T20:29:58.412Z,99263.38
2023-01-19T20:33:02.105Z,99267.50
2023-01-19T20:36:05.511Z,99265.00
2023-01-19T20:39:09.806Z,99263.81
2023-01-19T20:42:15.645Z,99254.56
2023-01-19T20:45:19.828Z,99254.56
2023-01-19T20:48:24.251Z,99265.66
2023-01-19T20:51:27.811Z,99262.37
2023-01-19T20:54:30.824Z,99257.59
2023-01-19T20:57:34.050Z,99257.34
2023-01-19T21:00:38.476Z,99251.47
2023-01-19T21:03:41.865Z,99243.19
2023-01-19T21:06:45.075Z,99261.97
2023-01-19T21:09:47.913Z,99270.78
2023-01-19T21:12:50.861Z,99268.44
2023-01-19T21:15:53.922Z,99269.19
2023-01-19T21:18:57.534Z,99256.06
2023-01-19T21:22:02.412Z,99270.59
2023-01-19T21:25:07.191Z,99278.72
2023-01-19T21:28:10.011Z,99284.25
2023-01-19T21:31:14.390Z,99288.72
2023-01-19T21:34:17.238Z,99283.25
2023-01-19T21:37:20.482Z,99287.03
2023-01-19T21:40:23.269Z,99297.63
2023-01-19T21:43:27.280Z,99316.28
2023-01-19T21:46:32.212Z,99353.53
2023-01-19T21:49:35.669Z,99375.00
2023-01-19T21:52:39.145Z,99381.38
2023-01-19T21:55:47.201Z,99385.13
2023-01-19T21:58:50.231Z,99363.03
2023-01-19T22:01:53.559Z,99344.09
2023-01-19T22:04:56.589Z,99338.28
2023-01-19T22:08:00.247Z,99341.72
2023-01-19T22:11:11.030Z,99341.59
2023-01-19T22:14:13.623Z,99349.28
2023-01-19T22:17:16.545Z,99340.78
2023-01-19T22:20:19.342Z,99318.41
2023-01-19T22:23:22.476Z,99328.72
2023-01-19T22:26:25.840Z,99335.38
2023-01-19T22:29:29.324Z,99352.63
2023-01-19T22:32:32.141Z,99360.97
2023-01-19T22:35:34.973Z,99360.59
2023-01-19T22:38:39.875Z,99359.94
2023-01-19T22:41:46.341Z,99351.03
2023-01-19T22:44:48.862Z,99338.66
2023-01-19T22:47:54.547Z,99338.47
2023-01-19T22:50:58.045Z,99340.53
2023-01-19T22:54:01.454Z,99337.28
2023-01-19T22:57:04.142Z,99327.81
2023-01-19T23:00:08.978Z,99332.84
2023-01-19T23:03:16.478Z,99315.56
2023-01-19T23:06:22.356Z,99310.78
2023-01-19T23:09:25.071Z,99312.78
2023-01-19T23:12:27.908Z,99309.94
2023-01-19T23:15:32.807Z,99304.16
2023-01-19T23:18:37.139Z,99303.00
2023-01-19T23:21:42.181Z,99286.97
2023-01-19T23:24:45.166Z,99287.22
2023-01-19T23:27:47.922Z,99289.38
2023-01-19T23:30:51.423Z,99283.44
2023-01-19T23:34:02.188Z,99295.84
2023-01-19T23:37:05.239Z,99315.81
2023-01-19T23:40:09.856Z,99329.41
2023-01-19T23:43:12.823Z,99323.13
2023-01-19T23:46:17.013Z,99330.25
2023-01-19T23:49:20.398Z,99327.63
2023-01-19T23:52:22.981Z,99318.50
2023-01-19T23:55:29.843Z,99312.72
2023-01-19T23:58:32.411Z,99316.19
